DLH739Y LOWW-EDDB
Flight info
| Callsign | DLH739Y |
|---|---|
| Flight time | N/A |
| Altitude | 30000 |
| Route | UNGU2C/29 LANUX DCT VLM DCT BEFRE T204 NUKRO |
| Aircraft | A20N/M-SDE2E3FGHIRWXY/LB1 |
Departure
| Time | 2026-04-25 20:30 |
|---|---|
| Airport | Vienna International Airport (LOWW) |
Arrival
| Time | N/A |
|---|---|
| Airport | Berlin Brandenburg Airport (EDDB) |
| Time | Latitude | Longitude | Altitude | Speed | Heading |
|---|---|---|---|---|---|
| 2026-04-25 20:16 | 48.11890 | 16.57323 | 601 ft | 0 kts | 17° |
| 2026-04-25 20:18 | 48.11899 | 16.57320 | 601 ft | 3 kts | 347° |
| 2026-04-25 20:18 | 48.11932 | 16.57297 | 600 ft | 8 kts | 336° |
| 2026-04-25 20:18 | 48.11986 | 16.57325 | 599 ft | 10 kts | 58° |
| 2026-04-25 20:19 | 48.11964 | 16.57406 | 600 ft | 10 kts | 148° |
| 2026-04-25 20:19 | 48.11890 | 16.57436 | 600 ft | 13 kts | 166° |
| 2026-04-25 20:19 | 48.11797 | 16.57475 | 602 ft | 15 kts | 164° |
| 2026-04-25 20:19 | 48.11700 | 16.57521 | 612 ft | 15 kts | 167° |
| 2026-04-25 20:20 | 48.11593 | 16.57564 | 621 ft | 17 kts | 163° |
| 2026-04-25 20:20 | 48.11470 | 16.57616 | 619 ft | 19 kts | 163° |
| 2026-04-25 20:20 | 48.11328 | 16.57677 | 619 ft | 23 kts | 165° |
| 2026-04-25 20:20 | 48.11183 | 16.57735 | 621 ft | 3 kts | 165° |
| 2026-04-25 20:21 | 48.11182 | 16.57735 | 621 ft | 0 kts | 165° |
| 2026-04-25 20:21 | 48.11180 | 16.57736 | 620 ft | 1 kts | 165° |
| 2026-04-25 20:22 | 48.11167 | 16.57742 | 619 ft | 3 kts | 162° |
| 2026-04-25 20:22 | 48.11155 | 16.57740 | 614 ft | 2 kts | 196° |
| 2026-04-25 20:22 | 48.11153 | 16.57734 | 615 ft | 0 kts | 228° |
| 2026-04-25 20:22 | 48.11153 | 16.57728 | 614 ft | 2 kts | 253° |
| 2026-04-25 20:23 | 48.11162 | 16.57693 | 617 ft | 6 kts | 297° |
| 2026-04-25 20:23 | 48.11185 | 16.57626 | 623 ft | 8 kts | 296° |
| 2026-04-25 20:23 | 48.11214 | 16.57540 | 620 ft | 10 kts | 294° |
| 2026-04-25 20:23 | 48.11246 | 16.57446 | 624 ft | 10 kts | 297° |
| 2026-04-25 20:24 | 48.11268 | 16.57352 | 623 ft | 10 kts | 277° |
| 2026-04-25 20:24 | 48.11243 | 16.57285 | 620 ft | 7 kts | 218° |
| 2026-04-25 20:24 | 48.11233 | 16.57273 | 624 ft | 0 kts | 218° |
| 2026-04-25 20:25 | 48.11222 | 16.57266 | 624 ft | 4 kts | 205° |
| 2026-04-25 20:25 | 48.11206 | 16.57268 | 631 ft | 1 kts | 121° |
| 2026-04-25 20:25 | 48.11197 | 16.57304 | 627 ft | 6 kts | 112° |
| 2026-04-25 20:26 | 48.11170 | 16.57394 | 618 ft | 13 kts | 115° |
| 2026-04-25 20:26 | 48.11124 | 16.57540 | 625 ft | 17 kts | 117° |
| 2026-04-25 20:26 | 48.11047 | 16.57658 | 619 ft | 9 kts | 185° |
| 2026-04-25 20:26 | 48.11039 | 16.57653 | 616 ft | 0 kts | 202° |
| 2026-04-25 20:28 | 48.11035 | 16.57650 | 616 ft | 2 kts | 207° |
| 2026-04-25 20:28 | 48.11017 | 16.57634 | 627 ft | 4 kts | 210° |
| 2026-04-25 20:28 | 48.10988 | 16.57606 | 618 ft | 6 kts | 220° |
| 2026-04-25 20:28 | 48.10960 | 16.57557 | 620 ft | 7 kts | 238° |
| 2026-04-25 20:29 | 48.10946 | 16.57477 | 628 ft | 9 kts | 268° |
| 2026-04-25 20:29 | 48.10965 | 16.57375 | 627 ft | 15 kts | 293° |
| 2026-04-25 20:29 | 48.11136 | 16.56846 | 630 ft | 96 kts | 296° |
| 2026-04-25 20:29 | 48.11519 | 16.55636 | 699 ft | 151 kts | 295° |
| 2026-04-25 20:30 | 48.11998 | 16.54235 | 1450 ft | 153 kts | 297° |
| 2026-04-25 20:30 | 48.12308 | 16.52775 | 2377 ft | 147 kts | 277° |
| 2026-04-25 20:30 | 48.12100 | 16.51177 | 2936 ft | 172 kts | 248° |
| 2026-04-25 20:30 | 48.11170 | 16.49827 | 3405 ft | 204 kts | 217° |
| 2026-04-25 20:31 | 48.09861 | 16.48764 | 3927 ft | 221 kts | 212° |
| 2026-04-25 20:31 | 48.08471 | 16.47701 | 4608 ft | 225 kts | 215° |
| 2026-04-25 20:31 | 48.07366 | 16.46121 | 4936 ft | 220 kts | 242° |
| 2026-04-25 20:31 | 48.06698 | 16.44057 | 5013 ft | 228 kts | 250° |
| 2026-04-25 20:32 | 48.06027 | 16.41764 | 5027 ft | 246 kts | 250° |
| 2026-04-25 20:32 | 48.05338 | 16.39438 | 5005 ft | 244 kts | 250° |
| 2026-04-25 20:32 | 48.04653 | 16.37150 | 5009 ft | 245 kts | 249° |
| 2026-04-25 20:32 | 48.03957 | 16.34845 | 5014 ft | 241 kts | 250° |
| 2026-04-25 20:33 | 48.03459 | 16.32492 | 5015 ft | 236 kts | 263° |
| 2026-04-25 20:33 | 48.03342 | 16.30085 | 5010 ft | 232 kts | 276° |
| 2026-04-25 20:33 | 48.03474 | 16.27531 | 5017 ft | 255 kts | 277° |
| 2026-04-25 20:33 | 48.03559 | 16.25748 | 5008 ft | 254 kts | 277° |
| 2026-04-25 20:34 | 48.03795 | 16.22283 | 5015 ft | 255 kts | 286° |
| 2026-04-25 20:34 | 48.04474 | 16.19856 | 5013 ft | 252 kts | 303° |
| 2026-04-25 20:34 | 48.05542 | 16.17814 | 5021 ft | 249 kts | 310° |
| 2026-04-25 20:34 | 48.06655 | 16.15798 | 5095 ft | 252 kts | 309° |
| 2026-04-25 20:35 | 48.07770 | 16.13753 | 5610 ft | 256 kts | 309° |
| 2026-04-25 20:35 | 48.08894 | 16.11682 | 6555 ft | 259 kts | 309° |
| 2026-04-25 20:35 | 48.10034 | 16.09579 | 7480 ft | 260 kts | 309° |
| 2026-04-25 20:35 | 48.11177 | 16.07466 | 8408 ft | 263 kts | 309° |
| 2026-04-25 20:36 | 48.12367 | 16.05367 | 9357 ft | 266 kts | 315° |
| 2026-04-25 20:36 | 48.13856 | 16.03677 | 10214 ft | 272 kts | 329° |
| 2026-04-25 20:36 | 48.15636 | 16.02533 | 10645 ft | 294 kts | 338° |
| 2026-04-25 20:36 | 48.17645 | 16.01478 | 10946 ft | 317 kts | 338° |
| 2026-04-25 20:37 | 48.19760 | 16.00375 | 11635 ft | 323 kts | 338° |
| 2026-04-25 20:37 | 48.21889 | 15.99259 | 12488 ft | 326 kts | 338° |
| 2026-04-25 20:37 | 48.24045 | 15.98117 | 13296 ft | 330 kts | 337° |
| 2026-04-25 20:37 | 48.26214 | 15.96959 | 14087 ft | 332 kts | 337° |
| 2026-04-25 20:38 | 48.28402 | 15.95786 | 14791 ft | 336 kts | 337° |
| 2026-04-25 20:38 | 48.30623 | 15.94593 | 15492 ft | 340 kts | 337° |
| 2026-04-25 20:38 | 48.32862 | 15.93390 | 16173 ft | 344 kts | 337° |
| 2026-04-25 20:38 | 48.35127 | 15.92172 | 16854 ft | 347 kts | 337° |
| 2026-04-25 20:39 | 48.36284 | 15.91549 | 17201 ft | 349 kts | 337° |
| 2026-04-25 20:39 | 48.36978 | 15.91175 | 17397 ft | 350 kts | 337° |
| 2026-04-25 20:39 | 48.39287 | 15.89932 | 18064 ft | 354 kts | 337° |
| 2026-04-25 20:39 | 48.40043 | 15.89524 | 18276 ft | 355 kts | 337° |
| 2026-04-25 20:40 | 48.43936 | 15.87425 | 19366 ft | 357 kts | 337° |
| 2026-04-25 20:40 | 48.46287 | 15.86155 | 19951 ft | 361 kts | 337° |
| 2026-04-25 20:40 | 48.48663 | 15.84869 | 20504 ft | 365 kts | 337° |
| 2026-04-25 20:40 | 48.51063 | 15.83568 | 21073 ft | 368 kts | 337° |
| 2026-04-25 20:41 | 48.53485 | 15.82255 | 21633 ft | 371 kts | 337° |
| 2026-04-25 20:41 | 48.55926 | 15.80930 | 22188 ft | 375 kts | 337° |
| 2026-04-25 20:41 | 48.58392 | 15.79590 | 22734 ft | 378 kts | 337° |
| 2026-04-25 20:41 | 48.60879 | 15.78236 | 23254 ft | 382 kts | 337° |
| 2026-04-25 20:42 | 48.63390 | 15.76867 | 23736 ft | 386 kts | 337° |
| 2026-04-25 20:42 | 48.65921 | 15.75488 | 23930 ft | 387 kts | 337° |
| 2026-04-25 20:42 | 48.68449 | 15.74109 | 23994 ft | 384 kts | 338° |
| 2026-04-25 20:42 | 48.70963 | 15.72737 | 23991 ft | 384 kts | 338° |
| 2026-04-25 20:43 | 48.73481 | 15.71361 | 23989 ft | 385 kts | 338° |
| 2026-04-25 20:43 | 48.76004 | 15.69980 | 23999 ft | 385 kts | 338° |
| 2026-04-25 20:43 | 48.78521 | 15.68602 | 24000 ft | 384 kts | 338° |
| 2026-04-25 20:43 | 48.81040 | 15.67220 | 23999 ft | 384 kts | 338° |
| 2026-04-25 20:44 | 48.83549 | 15.65812 | 24002 ft | 384 kts | 335° |
| 2026-04-25 20:44 | 48.85947 | 15.64067 | 24001 ft | 382 kts | 329° |
| 2026-04-25 20:44 | 48.88220 | 15.62084 | 23999 ft | 382 kts | 329° |
| 2026-04-25 20:44 | 48.90626 | 15.60357 | 24005 ft | 383 kts | 334° |
| 2026-04-25 20:45 | 48.93074 | 15.58766 | 24003 ft | 380 kts | 334° |
| 2026-04-25 20:45 | 48.95499 | 15.57168 | 24005 ft | 380 kts | 334° |
| 2026-04-25 20:45 | 48.97925 | 15.55559 | 23993 ft | 381 kts | 334° |
| 2026-04-25 20:45 | 49.00355 | 15.53943 | 23998 ft | 381 kts | 334° |
| 2026-04-25 20:46 | 49.02797 | 15.52319 | 24080 ft | 384 kts | 334° |